sensor_id;sensor_type;location;lat;lon;timestamp;pressure;altitude;pressure_sealevel;temperature;humidity
8069;BME280;4077;43.702;24.896;2023-03-21T00:00:44;99370.03;;;9.37;100.00
8069;BME280;4077;43.702;24.896;2023-03-21T00:03:12;99369.13;;;9.35;100.00
8069;BME280;4077;43.702;24.896;2023-03-21T00:05:42;99359.72;;;9.37;100.00
8069;BME280;4077;43.702;24.896;2023-03-21T00:08:14;99354.53;;;9.34;100.00
8069;BME280;4077;43.702;24.896;2023-03-21T00:10:40;99351.06;;;9.31;100.00
8069;BME280;4077;43.702;24.896;2023-03-21T00:13:05;99351.16;;;9.39;100.00
8069;BME280;4077;43.702;24.896;2023-03-21T00:15:31;99362.31;;;9.40;100.00
8069;BME280;4077;43.702;24.896;2023-03-21T00:17:56;99358.94;;;9.44;100.00
8069;BME280;4077;43.702;24.896;2023-03-21T00:20:32;99361.63;;;9.50;100.00
8069;BME280;4077;43.702;24.896;2023-03-21T00:23:02;99360.59;;;9.39;100.00
8069;BME280;4077;43.702;24.896;2023-03-21T00:25:28;99361.50;;;9.41;100.00
8069;BME280;4077;43.702;24.896;2023-03-21T00:27:54;99354.59;;;9.40;100.00
8069;BME280;4077;43.702;24.896;2023-03-21T00:30:19;99346.16;;;9.50;100.00
8069;BME280;4077;43.702;24.896;2023-03-21T00:32:45;99347.09;;;9.56;100.00
8069;BME280;4077;43.702;24.896;2023-03-21T00:35:11;99328.13;;;9.50;100.00
8069;BME280;4077;43.702;24.896;2023-03-21T00:37:37;99341.88;;;9.52;100.00
8069;BME280;4077;43.702;24.896;2023-03-21T00:40:03;99340.22;;;9.54;100.00
8069;BME280;4077;43.702;24.896;2023-03-21T00:42:34;99337.63;;;9.54;100.00
8069;BME280;4077;43.702;24.896;2023-03-21T00:45:00;99341.09;;;9.56;100.00
8069;BME280;4077;43.702;24.896;2023-03-21T00:47:26;99333.38;;;9.56;100.00
8069;BME280;4077;43.702;24.896;2023-03-21T00:49:51;99331.66;;;9.56;100.00
8069;BME280;4077;43.702;24.896;2023-03-21T00:52:17;99333.38;;;9.59;100.00
8069;BME280;4077;43.702;24.896;2023-03-21T00:54:42;99338.59;;;9.62;100.00
8069;BME280;4077;43.702;24.896;2023-03-21T00:57:08;99333.28;;;9.50;100.00
8069;BME280;4077;43.702;24.896;2023-03-21T00:59:33;99353.13;;;9.57;100.00
8069;BME280;4077;43.702;24.896;2023-03-21T01:01:59;99345.41;;;9.60;100.00
8069;BME280;4077;43.702;24.896;2023-03-21T01:04:24;99337.84;;;9.72;100.00
8069;BME280;4077;43.702;24.896;2023-03-21T01:06:51;99335.94;;;9.57;100.00
8069;BME280;4077;43.702;24.896;2023-03-21T01:09:22;99329.09;;;9.59;100.00
8069;BME280;4077;43.702;24.896;2023-03-21T01:11:49;99337.81;;;9.69;100.00
8069;BME280;4077;43.702;24.896;2023-03-21T01:14:16;99340.44;;;9.72;100.00
8069;BME280;4077;43.702;24.896;2023-03-21T01:16:43;99337.81;;;9.69;100.00
8069;BME280;4077;43.702;24.896;2023-03-21T01:19:11;99337.72;;;9.62;100.00
8069;BME280;4077;43.702;24.896;2023-03-21T01:21:38;99335.97;;;9.60;100.00
8069;BME280;4077;43.702;24.896;2023-03-21T01:24:03;99329.97;;;9.60;100.00
8069;BME280;4077;43.702;24.896;2023-03-21T01:26:29;99321.34;;;9.58;100.00
8069;BME280;4077;43.702;24.896;2023-03-21T01:28:54;99324.75;;;9.54;100.00
8069;BME280;4077;43.702;24.896;2023-03-21T01:31:20;99322.97;;;9.50;100.00
8069;BME280;4077;43.702;24.896;2023-03-21T01:33:45;99314.22;;;9.39;100.00
8069;BME280;4077;43.702;24.896;2023-03-21T01:36:19;99316.88;;;9.43;100.00
8069;BME280;4077;43.702;24.896;2023-03-21T01:38:46;99303.81;;;9.31;100.00
8069;BME280;4077;43.702;24.896;2023-03-21T01:43:56;99312.28;;;9.21;100.00
8069;BME280;4077;43.702;24.896;2023-03-21T01:46:40;99308.88;;;9.23;100.00
8069;BME280;4077;43.702;24.896;2023-03-21T01:49:14;99319.03;;;9.13;100.00
8069;BME280;4077;43.702;24.896;2023-03-21T01:51:50;99311.25;;;9.08;100.00
8069;BME280;4077;43.702;24.896;2023-03-21T01:54:26;99306.84;;;9.01;100.00
8069;BME280;4077;43.702;24.896;2023-03-21T01:56:55;99316.28;;;9.02;100.00
8069;BME280;4077;43.702;24.896;2023-03-21T01:59:32;99312.84;;;9.00;100.00
8069;BME280;4077;43.702;24.896;2023-03-21T02:02:03;99314.41;;;8.92;100.00
8069;BME280;4077;43.702;24.896;2023-03-21T02:04:33;99298.00;;;8.84;100.00
8069;BME280;4077;43.702;24.896;2023-03-21T02:07:08;99301.41;;;8.83;100.00
8069;BME280;4077;43.702;24.896;2023-03-21T02:09:37;99303.00;;;8.74;100.00
8069;BME280;4077;43.702;24.896;2023-03-21T02:12:06;99292.63;;;8.68;100.00
8069;BME280;4077;43.702;24.896;2023-03-21T02:14:34;99293.56;;;8.73;100.00
8069;BME280;4077;43.702;24.896;2023-03-21T02:25:33;99321.00;;;8.73;100.00
8069;BME280;4077;43.702;24.896;2023-03-21T02:28:11;99313.25;;;8.71;100.00
8069;BME280;4077;43.702;24.896;2023-03-21T02:33:38;99320.94;;;8.70;100.00
8069;BME280;4077;43.702;24.896;2023-03-21T02:39:23;99324.66;;;8.86;100.00
8069;BME280;4077;43.702;24.896;2023-03-21T02:41:56;99330.66;;;8.88;100.00
8069;BME280;4077;43.702;24.896;2023-03-21T02:44:41;99336.56;;;8.81;100.00
8069;BME280;4077;43.702;24.896;2023-03-21T02:47:26;99352.84;;;8.80;100.00
8069;BME280;4077;43.702;24.896;2023-03-21T02:52:23;99352.03;;;8.84;100.00
8069;BME280;4077;43.702;24.896;2023-03-21T02:54:51;99344.13;;;8.71;100.00
8069;BME280;4077;43.702;24.896;2023-03-21T02:57:18;99357.03;;;8.74;100.00
8069;BME280;4077;43.702;24.896;2023-03-21T02:59:47;99350.34;;;8.84;100.00
8069;BME280;4077;43.702;24.896;2023-03-21T03:02:15;99344.28;;;8.81;100.00
8069;BME280;4077;43.702;24.896;2023-03-21T03:04:42;99329.56;;;8.72;100.00
8069;BME280;4077;43.702;24.896;2023-03-21T03:07:12;99334.13;;;8.90;100.00
8069;BME280;4077;43.702;24.896;2023-03-21T03:13:09;99330.69;;;8.91;100.00
8069;BME280;4077;43.702;24.896;2023-03-21T03:15:46;99338.31;;;8.83;100.00
8069;BME280;4077;43.702;24.896;2023-03-21T03:21:03;99335.91;;;8.94;100.00
8069;BME280;4077;43.702;24.896;2023-03-21T03:23:45;99346.16;;;8.91;100.00
8069;BME280;4077;43.702;24.896;2023-03-21T03:26:16;99339.16;;;8.84;100.00
8069;BME280;4077;43.702;24.896;2023-03-21T03:28:50;99343.47;;;8.85;100.00
8069;BME280;4077;43.702;24.896;2023-03-21T03:31:22;99333.97;;;8.79;100.00
8069;BME280;4077;43.702;24.896;2023-03-21T03:33:51;99342.44;;;8.72;100.00
8069;BME280;4077;43.702;24.896;2023-03-21T03:36:19;99334.66;;;8.69;100.00
8069;BME280;4077;43.702;24.896;2023-03-21T03:38:48;99332.00;;;8.64;100.00
8069;BME280;4077;43.702;24.896;2023-03-21T03:41:21;99315.44;;;8.48;100.00
8069;BME280;4077;43.702;24.896;2023-03-21T03:43:52;99316.84;;;8.31;100.00
8069;BME280;4077;43.702;24.896;2023-03-21T03:46:31;99317.47;;;8.19;100.00
8069;BME280;4077;43.702;24.896;2023-03-21T03:49:13;99331.34;;;8.28;100.00
8069;BME280;4077;43.702;24.896;2023-03-21T03:54:40;99319.16;;;8.17;100.00
8069;BME280;4077;43.702;24.896;2023-03-21T03:57:07;99299.88;;;7.94;100.00
8069;BME280;4077;43.702;24.896;2023-03-21T03:59:37;99319.09;;;8.14;100.00
8069;BME280;4077;43.702;24.896;2023-03-21T04:02:03;99317.38;;;8.13;100.00
8069;BME280;4077;43.702;24.896;2023-03-21T04:04:29;99321.66;;;8.13;100.00
8069;BME280;4077;43.702;24.896;2023-03-21T04:06:56;99319.91;;;8.12;100.00
8069;BME280;4077;43.702;24.896;2023-03-21T04:09:22;99323.47;;;8.20;100.00
8069;BME280;4077;43.702;24.896;2023-03-21T04:11:47;99325.31;;;8.27;100.00
8069;BME280;4077;43.702;24.896;2023-03-21T04:14:13;99326.06;;;8.21;100.00
8069;BME280;4077;43.702;24.896;2023-03-21T04:16:39;99341.34;;;8.12;100.00
8069;BME280;4077;43.702;24.896;2023-03-21T04:19:04;99343.13;;;8.16;100.00
8069;BME280;4077;43.702;24.896;2023-03-21T04:21:30;99341.44;;;8.17;100.00
8069;BME280;4077;43.702;24.896;2023-03-21T04:23:55;99353.34;;;8.13;100.00
8069;BME280;4077;43.702;24.896;2023-03-21T04:26:22;99355.09;;;8.14;100.00
8069;BME280;4077;43.702;24.896;2023-03-21T04:28:48;99342.91;;;8.04;100.00
8069;BME280;4077;43.702;24.896;2023-03-21T04:31:14;99359.25;;;8.08;100.00
8069;BME280;4077;43.702;24.896;2023-03-21T04:33:41;99346.19;;;7.97;100.00
8069;BME280;4077;43.702;24.896;2023-03-21T04:36:07;99354.81;;;8.01;100.00
8069;BME280;4077;43.702;24.896;2023-03-21T04:38:34;99351.22;;;7.91;100.00
8069;BME280;4077;43.702;24.896;2023-03-21T04:41:01;99359.66;;;7.84;100.00
8069;BME280;4077;43.702;24.896;2023-03-21T04:43:27;99346.78;;;7.84;100.00
8069;BME280;4077;43.702;24.896;2023-03-21T04:45:53;99355.25;;;7.78;100.00
8069;BME280;4077;43.702;24.896;2023-03-21T04:48:20;99350.91;;;7.76;100.00
8069;BME280;4077;43.702;24.896;2023-03-21T04:50:49;99352.56;;;7.74;100.00
8069;BME280;4077;43.702;24.896;2023-03-21T04:53:14;99358.66;;;7.77;100.00
8069;BME280;4077;43.702;24.896;2023-03-21T04:55:40;99370.69;;;7.80;100.00
8069;BME280;4077;43.702;24.896;2023-03-21T04:58:05;99363.78;;;7.77;100.00
8069;BME280;4077;43.702;24.896;2023-03-21T05:00:31;99363.81;;;7.79;100.00
8069;BME280;4077;43.702;24.896;2023-03-21T05:03:02;99351.81;;;7.78;100.00
8069;BME280;4077;43.702;24.896;2023-03-21T05:05:29;99367.22;;;7.78;100.00
8069;BME280;4077;43.702;24.896;2023-03-21T05:07:56;99358.00;;;7.89;100.00
8069;BME280;4077;43.702;24.896;2023-03-21T05:10:21;99353.06;;;7.98;100.00
8069;BME280;4077;43.702;24.896;2023-03-21T05:12:47;99351.25;;;7.94;100.00
8069;BME280;4077;43.702;24.896;2023-03-21T05:15:12;99348.41;;;7.80;100.00
8069;BME280;4077;43.702;24.896;2023-03-21T05:17:37;99344.13;;;7.79;100.00
8069;BME280;4077;43.702;24.896;2023-03-21T05:20:03;99332.25;;;7.84;100.00
8069;BME280;4077;43.702;24.896;2023-03-21T05:22:30;99350.47;;;7.97;100.00
8069;BME280;4077;43.702;24.896;2023-03-21T05:25:06;99342.94;;;8.06;100.00
8069;BME280;4077;43.702;24.896;2023-03-21T05:27:33;99351.09;;;8.30;100.00
8069;BME280;4077;43.702;24.896;2023-03-21T05:30:08;99358.06;;;8.36;100.00
8069;BME280;4077;43.702;24.896;2023-03-21T05:32:35;99358.06;;;8.36;100.00
8069;BME280;4077;43.702;24.896;2023-03-21T05:35:01;99364.34;;;8.50;100.00
8069;BME280;4077;43.702;24.896;2023-03-21T05:37:27;99374.84;;;8.62;100.00
8069;BME280;4077;43.702;24.896;2023-03-21T05:39:53;99382.81;;;8.77;100.00
8069;BME280;4077;43.702;24.896;2023-03-21T05:42:18;99370.88;;;8.81;100.00
8069;BME280;4077;43.702;24.896;2023-03-21T05:44:44;99361.56;;;8.89;100.00
8069;BME280;4077;43.702;24.896;2023-03-21T05:47:12;99402.31;;;9.15;100.00
8069;BME280;4077;43.702;24.896;2023-03-21T05:49:38;99401.66;;;9.28;100.00
8069;BME280;4077;43.702;24.896;2023-03-21T05:52:03;99407.69;;;9.28;100.00
8069;BME280;4077;43.702;24.896;2023-03-21T05:54:29;99407.06;;;9.45;100.00
8069;BME280;4077;43.702;24.896;2023-03-21T05:56:54;99412.50;;;9.66;100.00
8069;BME280;4077;43.702;24.896;2023-03-21T05:59:20;99409.38;;;9.89;100.00
8069;BME280;4077;43.702;24.896;2023-03-21T06:01:46;99419.06;;;10.08;100.00
8069;BME280;4077;43.702;24.896;2023-03-21T06:04:11;99421.78;;;10.20;100.00
8069;BME280;4077;43.702;24.896;2023-03-21T06:06:36;99415.09;;;10.34;100.00
8069;BME280;4077;43.702;24.896;2023-03-21T06:09:02;99417.84;;;10.50;100.00
8069;BME280;4077;43.702;24.896;2023-03-21T06:11:30;99414.72;;;10.80;100.00
8069;BME280;4077;43.702;24.896;2023-03-21T06:13:56;99407.09;;;10.96;100.00
8069;BME280;4077;43.702;24.896;2023-03-21T06:16:21;99418.56;;;11.32;100.00
8069;BME280;4077;43.702;24.896;2023-03-21T06:18:47;99426.53;;;11.60;100.00
8069;BME280;4077;43.702;24.896;2023-03-21T06:21:12;99416.25;;;11.69;100.00
8069;BME280;4077;43.702;24.896;2023-03-21T06:23:38;99430.19;;;11.91;100.00
8069;BME280;4077;43.702;24.896;2023-03-21T06:26:04;99428.63;;;12.31;100.00
8069;BME280;4077;43.702;24.896;2023-03-21T06:28:30;99418.41;;;13.06;100.00
8069;BME280;4077;43.702;24.896;2023-03-21T06:30:56;99415.69;;;14.01;100.00
8069;BME280;4077;43.702;24.896;2023-03-21T06:33:21;99431.97;;;14.36;90.83
8069;BME280;4077;43.702;24.896;2023-03-21T06:35:54;99423.41;;;14.16;90.11
8069;BME280;4077;43.702;24.896;2023-03-21T06:38:20;99424.44;;;13.67;92.09
8069;BME280;4077;43.702;24.896;2023-03-21T06:40:46;99424.50;;;13.25;97.80
8069;BME280;4077;43.702;24.896;2023-03-21T06:43:12;99425.28;;;12.90;100.00
8069;BME280;4077;43.702;24.896;2023-03-21T06:45:38;99409.72;;;12.50;100.00
8069;BME280;4077;43.702;24.896;2023-03-21T06:48:03;99411.44;;;12.60;100.00
8069;BME280;4077;43.702;24.896;2023-03-21T06:50:29;99400.28;;;13.46;100.00
8069;BME280;4077;43.702;24.896;2023-03-21T06:52:54;99427.44;;;14.75;89.48
8069;BME280;4077;43.702;24.896;2023-03-21T06:55:22;99434.38;;;15.82;78.76
8069;BME280;4077;43.702;24.896;2023-03-21T06:57:51;99446.34;;;16.66;71.47
8069;BME280;4077;43.702;24.896;2023-03-21T07:00:18;99440.03;;;17.39;68.63
8069;BME280;4077;43.702;24.896;2023-03-21T07:02:43;99442.38;;;18.02;63.37
8069;BME280;4077;43.702;24.896;2023-03-21T07:05:09;99444.84;;;18.53;60.65
8069;BME280;4077;43.702;24.896;2023-03-21T07:07:35;99432.66;;;18.91;59.43
8069;BME280;4077;43.702;24.896;2023-03-21T07:10:01;99459.84;;;19.21;56.96
8069;BME280;4077;43.702;24.896;2023-03-21T07:12:27;99453.66;;;19.25;55.64
8069;BME280;4077;43.702;24.896;2023-03-21T07:14:52;99455.84;;;19.08;56.13
8069;BME280;4077;43.702;24.896;2023-03-21T07:17:18;99439.88;;;18.41;56.76
8069;BME280;4077;43.702;24.896;2023-03-21T07:19:43;99447.66;;;18.01;58.67
8069;BME280;4077;43.702;24.896;2023-03-21T07:22:08;99440.25;;;17.78;59.01
8069;BME280;4077;43.702;24.896;2023-03-21T07:24:34;99452.97;;;17.95;59.38
8069;BME280;4077;43.702;24.896;2023-03-21T07:26:59;99453.63;;;18.08;58.65
8069;BME280;4077;43.702;24.896;2023-03-21T07:29:25;99460.50;;;18.94;56.94
8069;BME280;4077;43.702;24.896;2023-03-21T07:31:50;99473.34;;;19.76;54.03
8069;BME280;4077;43.702;24.896;2023-03-21T07:34:16;99475.81;;;20.14;53.06
8069;BME280;4077;43.702;24.896;2023-03-21T07:36:43;99478.16;;;19.58;51.63
8069;BME280;4077;43.702;24.896;2023-03-21T07:39:08;99462.63;;;18.78;53.17
8069;BME280;4077;43.702;24.896;2023-03-21T07:41:34;99464.88;;;17.62;56.25
8069;BME280;4077;43.702;24.896;2023-03-21T07:43:59;99452.31;;;16.77;59.39
8069;BME280;4077;43.702;24.896;2023-03-21T07:46:25;99445.56;;;16.61;61.72
8069;BME280;4077;43.702;24.896;2023-03-21T07:48:50;99451.53;;;16.69;62.41
8069;BME280;4077;43.702;24.896;2023-03-21T07:51:16;99453.88;;;16.90;61.98
8069;BME280;4077;43.702;24.896;2023-03-21T07:53:41;99455.44;;;17.01;62.06
8069;BME280;4077;43.702;24.896;2023-03-21T07:56:08;99459.25;;;16.78;61.85
8069;BME280;4077;43.702;24.896;2023-03-21T07:58:33;99456.25;;;16.41;63.21
8069;BME280;4077;43.702;24.896;2023-03-21T08:00:59;99442.72;;;16.13;62.82
8069;BME280;4077;43.702;24.896;2023-03-21T08:03:26;99457.53;;;16.08;63.53
8069;BME280;4077;43.702;24.896;2023-03-21T08:05:53;99448.00;;;16.04;63.03
8069;BME280;4077;43.702;24.896;2023-03-21T08:08:19;99461.66;;;16.24;62.22
8069;BME280;4077;43.702;24.896;2023-03-21T08:10:44;99464.69;;;16.60;61.52
8069;BME280;4077;43.702;24.896;2023-03-21T08:13:10;99462.66;;;16.83;61.50
8069;BME280;4077;43.702;24.896;2023-03-21T08:15:36;99459.09;;;16.90;60.61
8069;BME280;4077;43.702;24.896;2023-03-21T08:18:04;99455.41;;;17.04;59.91
8069;BME280;4077;43.702;24.896;2023-03-21T08:20:29;99462.50;;;16.95;59.09
8069;BME280;4077;43.702;24.896;2023-03-21T08:22:55;99462.59;;;16.86;58.94
8069;BME280;4077;43.702;24.896;2023-03-21T08:25:21;99471.19;;;16.96;58.54
8069;BME280;4077;43.702;24.896;2023-03-21T08:27:47;99459.03;;;16.93;58.18
8069;BME280;4077;43.702;24.896;2023-03-21T08:30:15;99448.81;;;16.78;58.21
8069;BME280;4077;43.702;24.896;2023-03-21T08:32:41;99456.59;;;16.83;57.57
8069;BME280;4077;43.702;24.896;2023-03-21T08:35:09;99456.69;;;16.75;57.62
8069;BME280;4077;43.702;24.896;2023-03-21T08:37:39;99447.59;;;16.40;59.02
8069;BME280;4077;43.702;24.896;2023-03-21T08:40:06;99442.75;;;16.10;60.48
8069;BME280;4077;43.702;24.896;2023-03-21T08:42:38;99448.00;;;16.04;60.72
8069;BME280;4077;43.702;24.896;2023-03-21T08:45:05;99442.94;;;15.92;60.80
8069;BME280;4077;43.702;24.896;2023-03-21T08:47:31;99451.84;;;15.72;61.76
8069;BME280;4077;43.702;24.896;2023-03-21T08:49:57;99447.63;;;15.54;63.54
8069;BME280;4077;43.702;24.896;2023-03-21T08:52:23;99449.50;;;15.40;63.24
8069;BME280;4077;43.702;24.896;2023-03-21T08:54:50;99441.72;;;15.36;64.69
8069;BME280;4077;43.702;24.896;2023-03-21T08:57:15;99433.97;;;15.29;63.91
8069;BME280;4077;43.702;24.896;2023-03-21T08:59:41;99440.09;;;15.22;64.30
8069;BME280;4077;43.702;24.896;2023-03-21T09:02:06;99432.50;;;14.99;63.74
8069;BME280;4077;43.702;24.896;2023-03-21T09:04:32;99442.00;;;15.02;64.70
8069;BME280;4077;43.702;24.896;2023-03-21T09:06:58;99440.16;;;15.18;64.71
8069;BME280;4077;43.702;24.896;2023-03-21T09:09:26;99440.88;;;15.35;63.05
8069;BME280;4077;43.702;24.896;2023-03-21T09:11:52;99438.19;;;15.44;61.42
8069;BME280;4077;43.702;24.896;2023-03-21T09:14:18;99434.69;;;15.47;63.51
8069;BME280;4077;43.702;24.896;2023-03-21T09:16:43;99431.25;;;15.42;63.80
8069;BME280;4077;43.702;24.896;2023-03-21T09:19:09;99439.94;;;15.41;62.27
8069;BME280;4077;43.702;24.896;2023-03-21T09:21:34;99435.69;;;15.32;62.76
8069;BME280;4077;43.702;24.896;2023-03-21T09:24:01;99430.63;;;15.18;63.05
8069;BME280;4077;43.702;24.896;2023-03-21T09:26:27;99426.34;;;15.08;63.87
8069;BME280;4077;43.702;24.896;2023-03-21T09:28:53;99427.22;;;15.09;65.00
8069;BME280;4077;43.702;24.896;2023-03-21T09:31:20;99423.00;;;14.97;65.78
8069;BME280;4077;43.702;24.896;2023-03-21T09:33:49;99415.22;;;14.91;67.17
8069;BME280;4077;43.702;24.896;2023-03-21T09:36:16;99409.22;;;14.83;68.00
8069;BME280;4077;43.702;24.896;2023-03-21T09:38:44;99410.16;;;14.75;69.03
8069;BME280;4077;43.702;24.896;2023-03-21T09:49:01;99397.28;;;14.56;74.43
8069;BME280;4077;43.702;24.896;2023-03-21T09:51:35;99397.28;;;14.54;77.78
8069;BME280;4077;43.702;24.896;2023-03-21T09:54:15;99380.00;;;14.50;79.64
8069;BME280;4077;43.702;24.896;2023-03-21T09:56:43;99391.28;;;14.41;80.28
8069;BME280;4077;43.702;24.896;2023-03-21T09:59:18;99383.47;;;14.46;82.71
8069;BME280;4077;43.702;24.896;2023-03-21T10:01:47;99383.47;;;14.40;83.79
8069;BME280;4077;43.702;24.896;2023-03-21T10:04:15;99379.22;;;14.27;87.03
8069;BME280;4077;43.702;24.896;2023-03-21T10:06:50;99388.72;;;14.31;91.61
8069;BME280;4077;43.702;24.896;2023-03-21T10:09:20;99373.25;;;14.15;94.20
8069;BME280;4077;43.702;24.896;2023-03-21T10:12:02;99376.69;;;14.17;96.13
8069;BME280;4077;43.702;24.896;2023-03-21T10:14:43;99375.88;;;14.09;100.00
8069;BME280;4077;43.702;24.896;2023-03-21T10:17:30;99372.44;;;14.03;100.00
8069;BME280;4077;43.702;24.896;2023-03-21T10:20:17;99369.03;;;13.85;100.00
8069;BME280;4077;43.702;24.896;2023-03-21T10:22:45;99361.31;;;13.65;100.00
8069;BME280;4077;43.702;24.896;2023-03-21T10:25:16;99361.34;;;13.50;100.00
8069;BME280;4077;43.702;24.896;2023-03-21T10:27:42;99359.66;;;13.46;100.00
8069;BME280;4077;43.702;24.896;2023-03-21T10:30:18;99348.38;;;13.52;100.00
8069;BME280;4077;43.702;24.896;2023-03-21T10:32:45;99354.47;;;13.43;100.00
8069;BME280;4077;43.702;24.896;2023-03-21T10:35:12;99363.06;;;13.51;100.00
8069;BME280;4077;43.702;24.896;2023-03-21T10:37:38;99370.03;;;13.46;100.00
8069;BME280;4077;43.702;24.896;2023-03-21T10:40:06;99366.53;;;13.58;100.00
8069;BME280;4077;43.702;24.896;2023-03-21T10:42:32;99360.44;;;13.74;100.00
8069;BME280;4077;43.702;24.896;2023-03-21T10:45:00;99372.47;;;13.90;99.72
8069;BME280;4077;43.702;24.896;2023-03-21T10:47:27;99374.19;;;13.96;94.31
8069;BME280;4077;43.702;24.896;2023-03-21T10:49:53;99365.47;;;14.14;98.22
8069;BME280;4077;43.702;24.896;2023-03-21T10:52:21;99357.59;;;14.28;96.20
8069;BME280;4077;43.702;24.896;2023-03-21T10:54:48;99367.91;;;14.40;95.16
8069;BME280;4077;43.702;24.896;2023-03-21T10:57:20;99354.94;;;14.41;94.25
8069;BME280;4077;43.702;24.896;2023-03-21T11:02:23;99362.69;;;14.50;92.57
8069;BME280;4077;43.702;24.896;2023-03-21T11:04:50;99357.50;;;14.43;93.17
8069;BME280;4077;43.702;24.896;2023-03-21T11:07:17;99355.78;;;14.42;94.40
8069;BME280;4077;43.702;24.896;2023-03-21T11:09:56;99360.94;;;14.51;94.40
8069;BME280;4077;43.702;24.896;2023-03-21T11:14:54;99352.19;;;14.64;93.80
8069;BME280;4077;43.702;24.896;2023-03-21T11:17:26;99353.00;;;14.75;91.96
8069;BME280;4077;43.702;24.896;2023-03-21T11:19:58;99352.81;;;14.94;91.19
8069;BME280;4077;43.702;24.896;2023-03-21T11:22:28;99341.38;;;15.15;90.07
8069;BME280;4077;43.702;24.896;2023-03-21T11:24:59;99352.38;;;15.41;86.99
8069;BME280;4077;43.702;24.896;2023-03-21T11:27:26;99353.16;;;15.48;83.76
8069;BME280;4077;43.702;24.896;2023-03-21T11:29:54;99348.06;;;15.39;80.78
8069;BME280;4077;43.702;24.896;2023-03-21T11:32:36;99337.00;;;15.20;81.95
8069;BME280;4077;43.702;24.896;2023-03-21T11:37:45;99328.00;;;15.50;83.95
8069;BME280;4077;43.702;24.896;2023-03-21T11:40:22;99325.28;;;15.65;82.91
8069;BME280;4077;43.702;24.896;2023-03-21T11:42:52;99330.34;;;15.74;82.47
8069;BME280;4077;43.702;24.896;2023-03-21T11:45:19;99331.00;;;15.92;80.19
8069;BME280;4077;43.702;24.896;2023-03-21T11:47:46;99324.13;;;15.88;80.50
8069;BME280;4077;43.702;24.896;2023-03-21T11:50:40;99330.50;;;15.62;80.71
8069;BME280;4077;43.702;24.896;2023-03-21T12:20:18;99300.59;;;16.54;79.69
8069;BME280;4077;43.702;24.896;2023-03-21T12:23:07;99293.66;;;16.54;79.33
8069;BME280;4077;43.702;24.896;2023-03-21T12:25:46;99289.97;;;16.66;79.08
8069;BME280;4077;43.702;24.896;2023-03-21T12:36:41;99290.44;;;16.37;80.12
8069;BME280;4077;43.702;24.896;2023-03-21T12:39:29;99289.75;;;16.24;82.36
8069;BME280;4077;43.702;24.896;2023-03-21T12:45:37;99276.91;;;16.12;85.35
8069;BME280;4077;43.702;24.896;2023-03-21T12:48:02;99280.63;;;15.96;86.45
8069;BME280;4077;43.702;24.896;2023-03-21T12:50:33;99279.72;;;16.00;86.77
8069;BME280;4077;43.702;24.896;2023-03-21T12:55:48;99277.31;;;15.86;88.43
8069;BME280;4077;43.702;24.896;2023-03-21T12:58:19;99270.25;;;15.94;89.50
8069;BME280;4077;43.702;24.896;2023-03-21T13:00:55;99272.72;;;16.02;88.04
8069;BME280;4077;43.702;24.896;2023-03-21T13:03:25;99276.16;;;16.04;89.40
8069;BME280;4077;43.702;24.896;2023-03-21T13:05:55;99267.59;;;15.96;88.09
8069;BME280;4077;43.702;24.896;2023-03-21T13:08:38;99273.53;;;16.07;89.06
8069;BME280;4077;43.702;24.896;2023-03-21T13:11:06;99269.22;;;16.06;88.75
8069;BME280;4077;43.702;24.896;2023-03-21T13:14:03;99264.75;;;16.12;89.32
8069;BME280;4077;43.702;24.896;2023-03-21T13:19:54;99247.72;;;15.90;89.02
8069;BME280;4077;43.702;24.896;2023-03-21T13:22:29;99262.34;;;15.99;87.92
8069;BME280;4077;43.702;24.896;2023-03-21T13:25:14;99261.38;;;16.07;89.84
8069;BME280;4077;43.702;24.896;2023-03-21T13:27:41;99256.13;;;16.10;88.72
8069;BME280;4077;43.702;24.896;2023-03-21T13:32:40;99262.22;;;16.08;89.52
8069;BME280;4077;43.702;24.896;2023-03-21T13:37:48;99245.72;;;16.09;90.09
8069;BME280;4077;43.702;24.896;2023-03-21T13:42:54;99245.06;;;15.95;91.35
8069;BME280;4077;43.702;24.896;2023-03-21T13:45:45;99253.78;;;15.91;92.31
8069;BME280;4077;43.702;24.896;2023-03-21T13:48:40;99236.69;;;15.74;94.93
8069;BME280;4077;43.702;24.896;2023-03-21T13:51:06;99248.84;;;15.72;96.90
8069;BME280;4077;43.702;24.896;2023-03-21T13:53:40;99245.16;;;15.89;96.02
8069;BME280;4077;43.702;24.896;2023-03-21T13:58:50;99241.50;;;16.02;94.61
8069;BME280;4077;43.702;24.896;2023-03-21T14:04:18;99234.97;;;15.70;98.52
8069;BME280;4077;43.702;24.896;2023-03-21T14:09:20;99231.22;;;15.93;94.67
8069;BME280;4077;43.702;24.896;2023-03-21T14:11:46;99226.66;;;16.07;93.56
8069;BME280;4077;43.702;24.896;2023-03-21T14:14:15;99226.59;;;16.13;91.92
8069;BME280;4077;43.702;24.896;2023-03-21T14:16:43;99229.81;;;16.26;91.83
8069;BME280;4077;43.702;24.896;2023-03-21T14:19:10;99227.13;;;16.33;91.90
8069;BME280;4077;43.702;24.896;2023-03-21T14:21:36;99213.66;;;16.07;94.40
8069;BME280;4077;43.702;24.896;2023-03-21T14:24:05;99210.34;;;15.96;96.35
8069;BME280;4077;43.702;24.896;2023-03-21T14:27:00;99222.75;;;15.78;99.51
8069;BME280;4077;43.702;24.896;2023-03-21T14:29:30;99224.25;;;15.95;99.05
8069;BME280;4077;43.702;24.896;2023-03-21T14:31:57;99218.22;;;15.93;99.78
8069;BME280;4077;43.702;24.896;2023-03-21T14:34:26;99225.25;;;15.86;100.00
8069;BME280;4077;43.702;24.896;2023-03-21T14:36:53;99222.56;;;15.91;100.00
8069;BME280;4077;43.702;24.896;2023-03-21T14:39:24;99219.75;;;16.06;100.00
8069;BME280;4077;43.702;24.896;2023-03-21T14:41:56;99218.84;;;16.07;100.00
8069;BME280;4077;43.702;24.896;2023-03-21T14:44:48;99212.75;;;16.08;100.00
8069;BME280;4077;43.702;24.896;2023-03-21T14:47:23;99207.78;;;15.91;100.00
8069;BME280;4077;43.702;24.896;2023-03-21T14:49:49;99201.88;;;15.81;100.00
8069;BME280;4077;43.702;24.896;2023-03-21T14:52:21;99208.97;;;15.70;100.00
8069;BME280;4077;43.702;24.896;2023-03-21T14:54:48;99210.84;;;15.59;100.00
8069;BME280;4077;43.702;24.896;2023-03-21T14:57:19;99205.72;;;15.53;100.00
8069;BME280;4077;43.702;24.896;2023-03-21T14:59:48;99201.38;;;15.50;100.00
8069;BME280;4077;43.702;24.896;2023-03-21T15:02:33;99205.72;;;15.50;100.00
8069;BME280;4077;43.702;24.896;2023-03-21T15:05:24;99209.19;;;15.52;100.00